»·PEaware :: N505EC KSMX-KBFL

N505EC :: KSMX-KBFL

FLIGHT INFORMATION

Flight Status: Arrived
Operator: Privately registered:
United States
More flights under this callsign
Pilot: Jason S. (22976)
Aircraft: CESSNA T210 TURBO CENTURION
(T210)
More flights by this aircraft type
Origin: KSMX Santa Maria Pub/Capt Hancock
United States
Destination: KBFL Meadows
United States
More flights between these airports :: More routes between these airports
Route: FLW L17
File this flight plan on PilotEdge
Remarks:
Altitude:
(Current/Filed)
7,500ft
Speed:
(Current/Filed)
150kts
Departed: 27-Jan-19 04:34 PM
Arrived: 27-Jan-19 05:13 PM
Distance/Time
Traveled:
76nm/0:39
Distance/Time
To Go:
Arrived

Flight Plot

Page will automatically refresh every two minutes.

Flight plan parsing failed; only flown route is shown


Map Options




Map Legend


Flown Route
Filed Route
Departure Airport
Arrival Airport
Navaid (VOR, NDB)
Fix

Horizontal Profiles

Position Reports

Time Latitude Longitude Heading Altitude Ground
Speed
27-Jan-19 16:14 34.901135 -120.452021 228 265ft 0kts
27-Jan-19 16:15 34.901135 -120.452021 228 265ft 0kts
27-Jan-19 16:16 34.901135 -120.452021 228 265ft 0kts
27-Jan-19 16:17 34.901135 -120.452021 228 265ft 0kts
27-Jan-19 16:18 34.901135 -120.452021 228 265ft 0kts
27-Jan-19 16:19 34.901135 -120.452021 228 265ft 0kts
27-Jan-19 16:20 34.901135 -120.452021 228 265ft 0kts
27-Jan-19 16:21 34.901135 -120.452021 228 265ft 0kts
27-Jan-19 16:22 34.901135 -120.452021 228 265ft 0kts
27-Jan-19 16:23 34.901129 -120.452029 227 265ft 0kts
27-Jan-19 16:24 34.899844 -120.451464 204 265ft 6kts
27-Jan-19 16:25 34.898601 -120.450294 136 265ft 6kts
27-Jan-19 16:26 34.896601 -120.447909 137 265ft 10kts
27-Jan-19 16:27 34.894839 -120.445814 134 265ft 7kts
27-Jan-19 16:28 34.893387 -120.445215 177 265ft 0kts
27-Jan-19 16:29 34.893387 -120.445215 177 265ft 0kts
27-Jan-19 16:30 34.893387 -120.445215 177 265ft 0kts
27-Jan-19 16:31 34.893387 -120.445215 177 265ft 0kts
27-Jan-19 16:32 34.892816 -120.445663 247 265ft 4kts
27-Jan-19 16:33 34.900348 -120.455124 310 522ft 88kts
27-Jan-19 16:34 34.918470 -120.477060 356 1210ft 97kts
27-Jan-19 16:35 34.941696 -120.459128 31 1798ft 98kts
27-Jan-19 16:36 34.965167 -120.437517 31 2421ft 120kts
27-Jan-19 16:37 34.993890 -120.411703 32 3036ft 132kts
27-Jan-19 16:38 35.020596 -120.380322 42 3625ft 132kts
27-Jan-19 16:39 35.042710 -120.344933 77 4207ft 138kts
27-Jan-19 16:40 35.047269 -120.298383 79 4796ft 138kts
27-Jan-19 16:41 35.051880 -120.252160 78 5378ft 133kts
27-Jan-19 16:42 35.056555 -120.207977 78 5962ft 129kts
27-Jan-19 16:43 35.061257 -120.164393 78 6551ft 129kts
27-Jan-19 16:44 35.065972 -120.120746 78 7144ft 129kts
27-Jan-19 16:45 35.070858 -120.075715 79 7495ft 145kts
27-Jan-19 16:46 35.076229 -120.025217 79 7487ft 152kts
27-Jan-19 16:47 35.081704 -119.973649 80 7485ft 153kts
27-Jan-19 16:48 35.087233 -119.921465 80 7484ft 153kts
27-Jan-19 16:49 35.092707 -119.869924 80 7483ft 153kts
27-Jan-19 16:50 35.098234 -119.817926 80 7447ft 155kts
27-Jan-19 16:51 35.103825 -119.765670 80 7446ft 154kts
27-Jan-19 16:52 35.109331 -119.713796 80 7458ft 151kts
27-Jan-19 16:53 35.114524 -119.664257 79 7475ft 144kts
27-Jan-19 16:54 35.119572 -119.616198 79 7492ft 141kts
27-Jan-19 16:55 35.124566 -119.568406 79 7509ft 140kts
27-Jan-19 16:56 35.129465 -119.521263 79 7525ft 139kts
27-Jan-19 16:57 35.134315 -119.474323 79 7528ft 139kts
27-Jan-19 16:58 35.144242 -119.430101 46 7512ft 135kts
27-Jan-19 16:59 35.169231 -119.395586 45 7509ft 135kts
27-Jan-19 17:00 35.195621 -119.362840 43 7510ft 135kts
27-Jan-19 17:01 35.221470 -119.329527 44 7131ft 130kts
27-Jan-19 17:02 35.246482 -119.297638 44 6431ft 129kts
27-Jan-19 17:03 35.271411 -119.265812 44 5731ft 129kts
27-Jan-19 17:04 35.296181 -119.234157 44 5031ft 128kts
27-Jan-19 17:05 35.320980 -119.202436 45 4328ft 128kts
27-Jan-19 17:06 35.345551 -119.170976 45 3628ft 127kts
27-Jan-19 17:07 35.370056 -119.139575 45 2928ft 127kts
27-Jan-19 17:08 35.388162 -119.103258 79 2225ft 125kts
27-Jan-19 17:09 35.394599 -119.061650 68 1495ft 118kts
27-Jan-19 17:10 35.407310 -119.036366 4 1069ft 79kts
27-Jan-19 17:11 35.427892 -119.048934 315 550ft 79kts
27-Jan-19 17:12 35.436286 -119.058217 82 492ft 3kts
27-Jan-19 17:13 35.436331 -119.057763 86 493ft 0kts
27-Jan-19 17:14 35.435529 -119.055993 133 494ft 13kts
27-Jan-19 17:15 35.435095 -119.054228 157 498ft 0kts
27-Jan-19 17:16 35.435088 -119.054224 150 498ft 0kts
27-Jan-19 17:17 35.435088 -119.054224 150 498ft 0kts
27-Jan-19 17:18 35.435088 -119.054224 150 498ft 0kts
27-Jan-19 17:19 35.435088 -119.054224 150 498ft 0kts
27-Jan-19 17:20 35.435088 -119.054224 150 498ft 0kts
27-Jan-19 17:21 35.435088 -119.054224 150 498ft 0kts
27-Jan-19 17:22 35.435088 -119.054224 150 498ft 0kts
27-Jan-19 17:23 35.435088 -119.054224 150 498ft 0kts
27-Jan-19 17:24 35.435088 -119.054224 150 498ft 0kts
27-Jan-19 17:25 35.435088 -119.054224 150 498ft 0kts
27-Jan-19 17:26 35.435088 -119.054224 150 498ft 0kts

Navigation Log

Ident Type
Flight plan parsing failed, navigation log unavailable